Bw Prince — LADQ7 — position and weather

sailwx.info

Track history (hours):
 
Tides and Currents Weather Stations Pressure Air Temp Water Temp Dewpoint Dewpoint Depression Visibility Wind Speed Wind Dir Waves Ship Positions

Bw Prince

Last reported at 2014-Aug-27 15:33 UTC. Time now 2014-Sep-19 15:54 UTC.
Position N 29°27' W 094°51'.
Warning: this ship's position is 23 days out of date.

Length 225 m; draft 11.9 m.

Type: Tanker. MMSI: 259708000.

Date/timePositionNaut miles runAvg speedWind from/ knotsBaromVisibWave heightAir tempDewpointWater temp
2014-Aug-27 15:33N 29°27' W 094°51'1111.3
2014-Aug-27 14:33N 29°37' W 094°57'8 8.1
2014-Aug-27 13:33N 29°44' W 095°02'5 5.0
2014-Aug-27 12:33N 29°44' W 095°08'4 3.8
2014-Aug-27 11:33N 29°44' W 095°12'  
2014-Aug-24 21:32N 29°44' W 095°12'0 0.0
2014-Aug-24 20:32N 29°44' W 095°12'0 0.0
2014-Aug-24 19:32N 29°44' W 095°12'0 0.0
2014-Aug-24 18:32N 29°44' W 095°12'0 0.0
2014-Aug-24 17:32N 29°44' W 095°12'0 0.0
2014-Aug-24 16:31N 29°44' W 095°12'0 0.0
2014-Aug-24 15:32N 29°44' W 095°12'0 0.0
2014-Aug-24 14:31N 29°44' W 095°12'0 0.0
2014-Aug-24 13:32N 29°44' W 095°12'0 0.0
2014-Aug-24 12:31N 29°44' W 095°12'0 0.0
2014-Aug-24 11:31N 29°44' W 095°12'0 0.0
2014-Aug-24 10:32N 29°44' W 095°12'0 0.0
2014-Aug-24 09:28N 29°44' W 095°12'0 0.0
2014-Aug-24 08:31N 29°44' W 095°12'0 0.0
2014-Aug-24 07:31N 29°44' W 095°12'0 0.0
2014-Aug-24 06:31N 29°44' W 095°12'0 0.0
2014-Aug-24 05:31N 29°44' W 095°12'0 0.0
2014-Aug-24 04:31N 29°44' W 095°12'0 0.0
2014-Aug-24 03:31N 29°44' W 095°12'0 0.0
2014-Aug-24 02:28N 29°44' W 095°12'0 0.0
2014-Aug-24 01:31N 29°44' W 095°12'0 0.0
2014-Aug-24 00:31N 29°44' W 095°12'0 0.0
2014-Aug-23 23:31N 29°44' W 095°12'0 0.0
2014-Aug-23 22:31N 29°44' W 095°12'0 0.0
2014-Aug-23 21:28N 29°44' W 095°12'0 0.0
2014-Aug-23 20:31N 29°44' W 095°12'0 0.0
2014-Aug-23 19:31N 29°44' W 095°12'0 0.0
2014-Aug-23 03:31N 29°44' W 095°12'0 0.0
2014-Aug-23 02:31N 29°44' W 095°12'0 0.0
2014-Aug-23 01:31N 29°44' W 095°12'0 0.0
2014-Aug-23 00:31N 29°44' W 095°12'0 0.0
2014-Aug-22 23:31N 29°44' W 095°12'0 0.0
2014-Aug-22 22:31N 29°44' W 095°12'0 0.0
2014-Aug-22 21:31N 29°44' W 095°12'0 0.0
2014-Aug-22 20:31N 29°44' W 095°12'0 0.0
2014-Aug-22 19:31N 29°44' W 095°12'0 0.0
2014-Aug-22 18:31N 29°44' W 095°12'0 0.0
2014-Aug-22 17:31N 29°44' W 095°12'0 0.0
2014-Aug-22 16:31N 29°44' W 095°12'0 0.0
2014-Aug-22 15:31N 29°44' W 095°12'0 0.0
2014-Aug-22 14:31N 29°44' W 095°12'0 0.0
2014-Aug-22 13:31N 29°44' W 095°12'0 0.0
2014-Aug-22 12:31N 29°44' W 095°12'0 0.0
2014-Aug-22 11:31N 29°44' W 095°12'0 0.0
2014-Aug-22 10:31N 29°44' W 095°12'0 0.0
2014-Aug-22 09:31N 29°44' W 095°12'0 0.0
2014-Aug-22 08:31N 29°44' W 095°12'0 0.0
2014-Aug-22 07:31N 29°44' W 095°12'0 0.0
2014-Aug-22 06:31N 29°44' W 095°12'0 0.0
2014-Aug-22 05:31N 29°44' W 095°12'0 0.0
2014-Aug-22 04:31N 29°44' W 095°12'0 0.0
2014-Aug-22 03:31N 29°44' W 095°12'0 0.0
2014-Aug-22 02:31N 29°44' W 095°12'0 0.0
2014-Aug-22 01:31N 29°44' W 095°12'0 0.0
2014-Aug-22 00:31N 29°44' W 095°12'0 0.0
2014-Aug-21 23:31N 29°44' W 095°12'0 0.0
2014-Aug-21 22:31N 29°44' W 095°12'0 0.0
2014-Aug-21 21:31N 29°44' W 095°12'0 0.0
2014-Aug-21 20:31N 29°44' W 095°12'0 0.0
2014-Aug-21 19:31N 29°44' W 095°12'0 0.0
2014-Aug-21 18:28N 29°44' W 095°12'1 0.8
2014-Aug-21 17:33N 29°45' W 095°12'5 5.2
2014-Aug-21 16:33N 29°45' W 095°06'6 6.3
2014-Aug-21 15:33N 29°42' W 094°60'1110.6
2014-Aug-21 14:33N 29°32' W 094°54'1312.6
2014-Aug-21 13:33N 29°21' W 094°47'  
Track history (hours):
 
Tides and Currents Weather Stations Pressure Air Temp Water Temp Dewpoint Dewpoint Depression Visibility Wind Speed Wind Dir Waves Ship Positions

Bw Prince

Last reported at 2014-Aug-27 15:33 UTC. Time now 2014-Sep-19 15:54 UTC.
Position N 29°27' W 094°51'.
Warning: this ship's position is 23 days out of date.

Length 225 m; draft 11.9 m.

Type: Tanker. MMSI: 259708000.

Date/timePositionNaut miles runAvg speedWind from/ knotsBaromVisibWave heightAir tempDewpointWater temp
2014-Aug-27 15:33N 29°27' W 094°51'1111.3
2014-Aug-27 14:33N 29°37' W 094°57'8 8.1
2014-Aug-27 13:33N 29°44' W 095°02'5 5.0
2014-Aug-27 12:33N 29°44' W 095°08'4 3.8
2014-Aug-27 11:33N 29°44' W 095°12'  
2014-Aug-24 21:32N 29°44' W 095°12'0 0.0
2014-Aug-24 20:32N 29°44' W 095°12'0 0.0
2014-Aug-24 19:32N 29°44' W 095°12'0 0.0
2014-Aug-24 18:32N 29°44' W 095°12'0 0.0
2014-Aug-24 17:32N 29°44' W 095°12'0 0.0
2014-Aug-24 16:31N 29°44' W 095°12'0 0.0
2014-Aug-24 15:32N 29°44' W 095°12'0 0.0
2014-Aug-24 14:31N 29°44' W 095°12'0 0.0
2014-Aug-24 13:32N 29°44' W 095°12'0 0.0
2014-Aug-24 12:31N 29°44' W 095°12'0 0.0
2014-Aug-24 11:31N 29°44' W 095°12'0 0.0
2014-Aug-24 10:32N 29°44' W 095°12'0 0.0
2014-Aug-24 09:28N 29°44' W 095°12'0 0.0
2014-Aug-24 08:31N 29°44' W 095°12'0 0.0
2014-Aug-24 07:31N 29°44' W 095°12'0 0.0
2014-Aug-24 06:31N 29°44' W 095°12'0 0.0
2014-Aug-24 05:31N 29°44' W 095°12'0 0.0
2014-Aug-24 04:31N 29°44' W 095°12'0 0.0
2014-Aug-24 03:31N 29°44' W 095°12'0 0.0
2014-Aug-24 02:28N 29°44' W 095°12'0 0.0
2014-Aug-24 01:31N 29°44' W 095°12'0 0.0
2014-Aug-24 00:31N 29°44' W 095°12'0 0.0
2014-Aug-23 23:31N 29°44' W 095°12'0 0.0
2014-Aug-23 22:31N 29°44' W 095°12'0 0.0
2014-Aug-23 21:28N 29°44' W 095°12'0 0.0
2014-Aug-23 20:31N 29°44' W 095°12'0 0.0
2014-Aug-23 19:31N 29°44' W 095°12'0 0.0
2014-Aug-23 03:31N 29°44' W 095°12'0 0.0
2014-Aug-23 02:31N 29°44' W 095°12'0 0.0
2014-Aug-23 01:31N 29°44' W 095°12'0 0.0
2014-Aug-23 00:31N 29°44' W 095°12'0 0.0
2014-Aug-22 23:31N 29°44' W 095°12'0 0.0
2014-Aug-22 22:31N 29°44' W 095°12'0 0.0
2014-Aug-22 21:31N 29°44' W 095°12'0 0.0
2014-Aug-22 20:31N 29°44' W 095°12'0 0.0
2014-Aug-22 19:31N 29°44' W 095°12'0 0.0
2014-Aug-22 18:31N 29°44' W 095°12'0 0.0
2014-Aug-22 17:31N 29°44' W 095°12'0 0.0
2014-Aug-22 16:31N 29°44' W 095°12'0 0.0
2014-Aug-22 15:31N 29°44' W 095°12'0 0.0
2014-Aug-22 14:31N 29°44' W 095°12'0 0.0
2014-Aug-22 13:31N 29°44' W 095°12'0 0.0
2014-Aug-22 12:31N 29°44' W 095°12'0 0.0
2014-Aug-22 11:31N 29°44' W 095°12'0 0.0
2014-Aug-22 10:31N 29°44' W 095°12'0 0.0
2014-Aug-22 09:31N 29°44' W 095°12'0 0.0
2014-Aug-22 08:31N 29°44' W 095°12'0 0.0
2014-Aug-22 07:31N 29°44' W 095°12'0 0.0
2014-Aug-22 06:31N 29°44' W 095°12'0 0.0
2014-Aug-22 05:31N 29°44' W 095°12'0 0.0
2014-Aug-22 04:31N 29°44' W 095°12'0 0.0
2014-Aug-22 03:31N 29°44' W 095°12'0 0.0
2014-Aug-22 02:31N 29°44' W 095°12'0 0.0
2014-Aug-22 01:31N 29°44' W 095°12'0 0.0
2014-Aug-22 00:31N 29°44' W 095°12'0 0.0
2014-Aug-21 23:31N 29°44' W 095°12'0 0.0
2014-Aug-21 22:31N 29°44' W 095°12'0 0.0
2014-Aug-21 21:31N 29°44' W 095°12'0 0.0
2014-Aug-21 20:31N 29°44' W 095°12'0 0.0
2014-Aug-21 19:31N 29°44' W 095°12'0 0.0
2014-Aug-21 18:28N 29°44' W 095°12'1 0.8
2014-Aug-21 17:33N 29°45' W 095°12'5 5.2
2014-Aug-21 16:33N 29°45' W 095°06'6 6.3
2014-Aug-21 15:33N 29°42' W 094°60'1110.6
2014-Aug-21 14:33N 29°32' W 094°54'1312.6
2014-Aug-21 13:33N 29°21' W 094°47'  

Dump ship's entire track history